Last 24 Hours

OV-Belmont 8000'

Hourly Data | America/Los_Angeles
as of 6/24/24 6:54 PM PDT
Date & Time Temp (°F) RH (%) Dew Pt (°F) Wet Bulb (°F) Wind Dir (°) Wind Spd (mph) Wind Gust (mph) WindChill (°F) Latest Rain (In) Daily Min Temp (°F) Daily Max Temp (°F) Daily Rain (In)
6/24/24 - 1800 65.2 45 43.2 52.2 SW | 217 8.4 20.6 66.8 0.00 56.8 68.3 0.00
6/24/24 - 1700 67.5 40 42.3 52.6 SW | 219 10.4 23.6 66.2 0.00 56.8 68.3 0.00
6/24/24 - 1600 65.0 48 44.8 52.8 SW | 214 9.8 30.4 65.8 0.00 56.8 68.3 0.00
6/24/24 - 1500 66.6 49 47.0 54.5 SW | 216 11.0 25.8 66.0 0.00 56.8 68.3 0.00
6/24/24 - 1400 65.1 52 47.0 54.0 SSW | 210 11.7 30.7 66.0 0.00 56.8 68.3 0.00
6/24/24 - 1300 67.9 51 48.9 56.0 SSW | 212 9.8 24.1 65.8 0.00 56.8 68.3 0.00
6/24/24 - 1200 66.4 48 46.3 54.1 SSW | 206 7.8 23.5 65.4 0.00 56.8 67.5 0.00
6/24/24 - 1100 64.0 51 45.6 52.9 SSW | 201 8.2 21.5 63.5 0.00 56.8 65.1 0.00
6/24/24 - 1000 62.8 46 41.5 50.5 S | 190 11.8 27.7 62.0 0.00 56.8 62.8 0.00
6/24/24 - 0900 61.5 41 37.9 48.4 S | 191 13.9 26.0 60.5 0.00 56.8 61.6 0.00
6/24/24 - 0800 60.0 47 39.5 48.5 S | 188 12.7 23.6 59.4 0.00 56.8 60.0 0.00
6/24/24 - 0700 59.1 45 38.0 47.4 S | 183 8.2 21.7 58.6 0.00 56.8 59.3 0.00
6/24/24 - 0600 58.4 46 37.7 47.0 S | 186 6.8 22.9 57.5 0.00 56.8 58.9 0.00
6/24/24 - 0500 57.7 46 37.2 46.5 SSW | 197 7.0 23.1 57.9 0.00 57.1 58.9 0.00
6/24/24 - 0400 57.1 48 37.9 46.5 SW | 227 7.6 29.2 57.7 0.00 57.1 58.9 0.00
6/24/24 - 0300 57.8 44 36.1 46.1 SW | 229 8.3 30.7 57.8 0.00 57.3 58.9 0.00
6/24/24 - 0200 57.6 40 33.4 45.0 SW | 221 9.7 25.4 57.8 0.00 57.3 58.9 0.00
6/24/24 - 0100 58.4 31 27.8 43.3 SW | 223 9.4 27.5 58.0 0.00 57.5 58.9 0.00
6/24/24 - 0000 58.0 35 30.5 44.0 SW | 226 10.1 26.6 57.4 0.00 56.8 69.9 0.00
6/23/24 - 2300 57.2 50 38.8 47.0 SW | 223 10.3 21.5 57.4 0.00 56.9 69.9 0.00
6/23/24 - 2200 57.2 49 38.5 46.9 SW | 229 11.1 23.1 57.8 0.00 57.2 69.9 0.00
6/23/24 - 2100 58.3 48 38.8 47.5 SW | 230 11.4 23.5 59.5 0.00 58.1 69.9 0.00
6/23/24 - 2000 60.4 47 40.2 48.9 WSW | 238 10.0 21.0 61.6 0.00 58.6 69.9 0.00
6/23/24 - 1900 63.0 45 41.4 50.5 SW | 223 10.6 20.0 65.1 0.00 58.6 69.9 0.00
6/23/24 - 1800 66.8 43 43.3 52.8 SW | 215 10.2 21.1 67.3 0.00 58.6 69.9 0.00
Max 67.9 52 48.9 56.0 - 13.9 30.7 67.3 0.00 58.6 69.9 0.00
Avg 61.6 45 40.2 49.4 - 9.9 24.6 61.5 0.00 - - -
Min 57.1 31 27.8 43.3 - 6.8 20.0 57.4 0.00 56.8 58.9 0.00
Total - - - - - - - - 0.00 - - -